sensor_id;sensor_type;location;lat;lon;timestamp;P1;durP1;ratioP1;P2;durP2;ratioP2
15944;SDS011;30172;48.832;8.732;2024-03-08T00:01:39;42.70;;;24.67;;
15944;SDS011;30172;48.832;8.732;2024-03-08T00:04:04;40.90;;;23.40;;
15944;SDS011;30172;48.832;8.732;2024-03-08T00:06:31;39.97;;;24.03;;
15944;SDS011;30172;48.832;8.732;2024-03-08T00:08:56;39.87;;;24.90;;
15944;SDS011;30172;48.832;8.732;2024-03-08T00:11:22;36.13;;;22.50;;
15944;SDS011;30172;48.832;8.732;2024-03-08T00:13:50;38.37;;;23.57;;
15944;SDS011;30172;48.832;8.732;2024-03-08T00:16:17;39.37;;;24.43;;
15944;SDS011;30172;48.832;8.732;2024-03-08T00:18:44;37.23;;;22.73;;
15944;SDS011;30172;48.832;8.732;2024-03-08T00:21:09;39.27;;;23.67;;
15944;SDS011;30172;48.832;8.732;2024-03-08T00:23:35;36.93;;;23.80;;
15944;SDS011;30172;48.832;8.732;2024-03-08T00:26:01;40.77;;;24.70;;
15944;SDS011;30172;48.832;8.732;2024-03-08T00:28:28;39.33;;;22.93;;
15944;SDS011;30172;48.832;8.732;2024-03-08T00:30:54;40.63;;;24.40;;
15944;SDS011;30172;48.832;8.732;2024-03-08T00:33:19;37.87;;;23.77;;
15944;SDS011;30172;48.832;8.732;2024-03-08T00:35:44;34.87;;;22.43;;
15944;SDS011;30172;48.832;8.732;2024-03-08T00:38:09;38.70;;;23.27;;
15944;SDS011;30172;48.832;8.732;2024-03-08T00:40:35;36.40;;;24.10;;
15944;SDS011;30172;48.832;8.732;2024-03-08T00:43:00;32.60;;;21.60;;
15944;SDS011;30172;48.832;8.732;2024-03-08T00:45:28;31.97;;;21.27;;
15944;SDS011;30172;48.832;8.732;2024-03-08T00:47:54;40.03;;;23.67;;
15944;SDS011;30172;48.832;8.732;2024-03-08T00:50:19;38.87;;;22.90;;
15944;SDS011;30172;48.832;8.732;2024-03-08T00:52:45;40.67;;;23.53;;
15944;SDS011;30172;48.832;8.732;2024-03-08T00:55:11;37.00;;;21.77;;
15944;SDS011;30172;48.832;8.732;2024-03-08T00:57:37;38.23;;;23.30;;
15944;SDS011;30172;48.832;8.732;2024-03-08T01:00:04;37.53;;;22.43;;
15944;SDS011;30172;48.832;8.732;2024-03-08T01:02:34;37.93;;;23.50;;
15944;SDS011;30172;48.832;8.732;2024-03-08T01:05:00;38.87;;;23.73;;
15944;SDS011;30172;48.832;8.732;2024-03-08T01:07:26;37.70;;;23.30;;
15944;SDS011;30172;48.832;8.732;2024-03-08T01:09:51;40.70;;;23.83;;
15944;SDS011;30172;48.832;8.732;2024-03-08T01:12:16;37.50;;;22.00;;
15944;SDS011;30172;48.832;8.732;2024-03-08T01:14:42;34.93;;;21.47;;
15944;SDS011;30172;48.832;8.732;2024-03-08T01:17:07;38.40;;;22.27;;
15944;SDS011;30172;48.832;8.732;2024-03-08T01:19:34;36.13;;;22.13;;
15944;SDS011;30172;48.832;8.732;2024-03-08T01:22:00;35.93;;;21.93;;
15944;SDS011;30172;48.832;8.732;2024-03-08T01:24:25;32.07;;;21.00;;
15944;SDS011;30172;48.832;8.732;2024-03-08T01:26:50;35.00;;;23.03;;
15944;SDS011;30172;48.832;8.732;2024-03-08T01:29:16;35.40;;;21.97;;
15944;SDS011;30172;48.832;8.732;2024-03-08T01:31:41;35.97;;;22.03;;
15944;SDS011;30172;48.832;8.732;2024-03-08T01:34:06;35.27;;;21.20;;
15944;SDS011;30172;48.832;8.732;2024-03-08T01:36:32;36.37;;;21.07;;
15944;SDS011;30172;48.832;8.732;2024-03-08T01:38:57;33.30;;;21.67;;
15944;SDS011;30172;48.832;8.732;2024-03-08T01:41:22;36.30;;;21.40;;
15944;SDS011;30172;48.832;8.732;2024-03-08T01:43:48;34.83;;;20.30;;
15944;SDS011;30172;48.832;8.732;2024-03-08T01:46:15;35.13;;;21.60;;
15944;SDS011;30172;48.832;8.732;2024-03-08T01:48:42;32.60;;;20.73;;
15944;SDS011;30172;48.832;8.732;2024-03-08T01:51:08;34.57;;;21.13;;
15944;SDS011;30172;48.832;8.732;2024-03-08T01:53:34;34.20;;;22.07;;
15944;SDS011;30172;48.832;8.732;2024-03-08T01:56:00;36.80;;;22.40;;
15944;SDS011;30172;48.832;8.732;2024-03-08T01:58:29;34.70;;;22.37;;
15944;SDS011;30172;48.832;8.732;2024-03-08T02:00:56;34.90;;;22.07;;
15944;SDS011;30172;48.832;8.732;2024-03-08T02:03:21;32.73;;;20.97;;
15944;SDS011;30172;48.832;8.732;2024-03-08T02:05:47;35.77;;;21.13;;
15944;SDS011;30172;48.832;8.732;2024-03-08T02:08:13;34.23;;;21.93;;
15944;SDS011;30172;48.832;8.732;2024-03-08T02:10:40;35.30;;;21.67;;
15944;SDS011;30172;48.832;8.732;2024-03-08T02:13:06;34.50;;;21.63;;
15944;SDS011;30172;48.832;8.732;2024-03-08T02:18:33;34.47;;;20.67;;
15944;SDS011;30172;48.832;8.732;2024-03-08T02:20:59;33.23;;;21.17;;
15944;SDS011;30172;48.832;8.732;2024-03-08T02:23:26;31.70;;;21.30;;
15944;SDS011;30172;48.832;8.732;2024-03-08T02:25:51;35.07;;;21.57;;
15944;SDS011;30172;48.832;8.732;2024-03-08T02:28:18;34.20;;;21.30;;
15944;SDS011;30172;48.832;8.732;2024-03-08T02:30:44;37.17;;;21.70;;
15944;SDS011;30172;48.832;8.732;2024-03-08T02:33:13;37.23;;;21.60;;
15944;SDS011;30172;48.832;8.732;2024-03-08T02:35:42;34.50;;;22.67;;
15944;SDS011;30172;48.832;8.732;2024-03-08T02:38:13;36.47;;;22.33;;
15944;SDS011;30172;48.832;8.732;2024-03-08T02:40:50;35.40;;;21.50;;
15944;SDS011;30172;48.832;8.732;2024-03-08T02:43:16;31.90;;;20.27;;
15944;SDS011;30172;48.832;8.732;2024-03-08T02:45:47;34.73;;;21.30;;
15944;SDS011;30172;48.832;8.732;2024-03-08T02:48:13;33.83;;;20.67;;
15944;SDS011;30172;48.832;8.732;2024-03-08T02:50:39;36.83;;;21.87;;
15944;SDS011;30172;48.832;8.732;2024-03-08T02:53:07;38.77;;;22.37;;
15944;SDS011;30172;48.832;8.732;2024-03-08T02:55:33;37.33;;;21.77;;
15944;SDS011;30172;48.832;8.732;2024-03-08T02:58:01;35.27;;;20.57;;
15944;SDS011;30172;48.832;8.732;2024-03-08T03:00:28;36.13;;;22.00;;
15944;SDS011;30172;48.832;8.732;2024-03-08T03:02:55;36.17;;;22.57;;
15944;SDS011;30172;48.832;8.732;2024-03-08T03:05:21;34.70;;;21.77;;
15944;SDS011;30172;48.832;8.732;2024-03-08T03:07:47;32.87;;;20.40;;
15944;SDS011;30172;48.832;8.732;2024-03-08T03:10:13;38.93;;;22.60;;
15944;SDS011;30172;48.832;8.732;2024-03-08T03:12:41;37.47;;;21.57;;
15944;SDS011;30172;48.832;8.732;2024-03-08T03:15:07;38.20;;;21.23;;
15944;SDS011;30172;48.832;8.732;2024-03-08T03:17:33;37.40;;;21.07;;
15944;SDS011;30172;48.832;8.732;2024-03-08T03:19:58;34.67;;;20.63;;
15944;SDS011;30172;48.832;8.732;2024-03-08T03:22:23;35.33;;;21.97;;
15944;SDS011;30172;48.832;8.732;2024-03-08T03:24:50;35.07;;;21.53;;
15944;SDS011;30172;48.832;8.732;2024-03-08T03:27:16;40.57;;;23.53;;
15944;SDS011;30172;48.832;8.732;2024-03-08T03:29:42;33.23;;;20.90;;
15944;SDS011;30172;48.832;8.732;2024-03-08T03:32:12;36.20;;;22.33;;
15944;SDS011;30172;48.832;8.732;2024-03-08T03:34:38;35.20;;;22.03;;
15944;SDS011;30172;48.832;8.732;2024-03-08T03:37:04;37.17;;;22.70;;
15944;SDS011;30172;48.832;8.732;2024-03-08T03:39:30;33.00;;;19.90;;
15944;SDS011;30172;48.832;8.732;2024-03-08T03:41:59;37.47;;;20.80;;
15944;SDS011;30172;48.832;8.732;2024-03-08T03:44:27;31.67;;;19.30;;
15944;SDS011;30172;48.832;8.732;2024-03-08T03:46:55;33.70;;;20.33;;
15944;SDS011;30172;48.832;8.732;2024-03-08T03:49:20;34.37;;;19.60;;
15944;SDS011;30172;48.832;8.732;2024-03-08T03:51:46;35.57;;;20.70;;
15944;SDS011;30172;48.832;8.732;2024-03-08T03:54:11;32.23;;;20.27;;
15944;SDS011;30172;48.832;8.732;2024-03-08T03:56:37;33.87;;;19.30;;
15944;SDS011;30172;48.832;8.732;2024-03-08T03:59:03;31.43;;;19.47;;
15944;SDS011;30172;48.832;8.732;2024-03-08T04:01:28;37.60;;;21.23;;
15944;SDS011;30172;48.832;8.732;2024-03-08T04:03:54;30.30;;;19.53;;
15944;SDS011;30172;48.832;8.732;2024-03-08T04:06:20;35.73;;;20.73;;
15944;SDS011;30172;48.832;8.732;2024-03-08T04:08:45;32.63;;;20.00;;
15944;SDS011;30172;48.832;8.732;2024-03-08T04:11:11;33.90;;;19.63;;
15944;SDS011;30172;48.832;8.732;2024-03-08T04:13:36;33.87;;;20.83;;
15944;SDS011;30172;48.832;8.732;2024-03-08T04:16:02;32.30;;;19.57;;
15944;SDS011;30172;48.832;8.732;2024-03-08T04:18:27;30.57;;;19.63;;
15944;SDS011;30172;48.832;8.732;2024-03-08T04:20:53;34.17;;;19.83;;
15944;SDS011;30172;48.832;8.732;2024-03-08T04:23:18;33.47;;;20.30;;
15944;SDS011;30172;48.832;8.732;2024-03-08T04:25:44;33.70;;;19.97;;
15944;SDS011;30172;48.832;8.732;2024-03-08T04:28:09;31.83;;;19.50;;
15944;SDS011;30172;48.832;8.732;2024-03-08T04:30:37;34.37;;;20.50;;
15944;SDS011;30172;48.832;8.732;2024-03-08T04:33:03;35.43;;;21.10;;
15944;SDS011;30172;48.832;8.732;2024-03-08T04:35:28;31.50;;;19.13;;
15944;SDS011;30172;48.832;8.732;2024-03-08T04:37:54;32.53;;;20.17;;
15944;SDS011;30172;48.832;8.732;2024-03-08T04:40:19;30.17;;;19.40;;
15944;SDS011;30172;48.832;8.732;2024-03-08T04:42:44;29.93;;;18.30;;
15944;SDS011;30172;48.832;8.732;2024-03-08T04:45:10;32.03;;;18.70;;
15944;SDS011;30172;48.832;8.732;2024-03-08T04:47:38;34.17;;;18.60;;
15944;SDS011;30172;48.832;8.732;2024-03-08T04:50:04;31.90;;;19.97;;
15944;SDS011;30172;48.832;8.732;2024-03-08T04:52:30;34.00;;;19.67;;
15944;SDS011;30172;48.832;8.732;2024-03-08T04:54:55;29.60;;;18.80;;
15944;SDS011;30172;48.832;8.732;2024-03-08T04:57:21;34.23;;;20.40;;
15944;SDS011;30172;48.832;8.732;2024-03-08T04:59:46;29.87;;;19.50;;
15944;SDS011;30172;48.832;8.732;2024-03-08T05:02:11;34.00;;;19.23;;
15944;SDS011;30172;48.832;8.732;2024-03-08T05:04:37;38.30;;;19.60;;
15944;SDS011;30172;48.832;8.732;2024-03-08T05:07:02;30.30;;;19.17;;
15944;SDS011;30172;48.832;8.732;2024-03-08T05:09:28;30.13;;;18.23;;
15944;SDS011;30172;48.832;8.732;2024-03-08T05:11:54;32.10;;;19.30;;
15944;SDS011;30172;48.832;8.732;2024-03-08T05:14:19;31.67;;;20.57;;
15944;SDS011;30172;48.832;8.732;2024-03-08T05:16:46;33.53;;;19.70;;
15944;SDS011;30172;48.832;8.732;2024-03-08T05:19:17;35.70;;;20.67;;
15944;SDS011;30172;48.832;8.732;2024-03-08T05:21:43;31.97;;;19.43;;
15944;SDS011;30172;48.832;8.732;2024-03-08T05:24:12;33.23;;;19.37;;
15944;SDS011;30172;48.832;8.732;2024-03-08T05:26:41;34.03;;;20.07;;
15944;SDS011;30172;48.832;8.732;2024-03-08T05:29:06;33.33;;;20.67;;
15944;SDS011;30172;48.832;8.732;2024-03-08T05:31:36;30.60;;;18.87;;
15944;SDS011;30172;48.832;8.732;2024-03-08T05:34:07;35.10;;;20.67;;
15944;SDS011;30172;48.832;8.732;2024-03-08T05:36:35;36.23;;;19.57;;
15944;SDS011;30172;48.832;8.732;2024-03-08T05:39:00;36.23;;;20.70;;
15944;SDS011;30172;48.832;8.732;2024-03-08T05:41:25;35.43;;;21.33;;
15944;SDS011;30172;48.832;8.732;2024-03-08T05:43:51;35.70;;;20.67;;
15944;SDS011;30172;48.832;8.732;2024-03-08T05:46:16;35.27;;;20.87;;
15944;SDS011;30172;48.832;8.732;2024-03-08T05:48:43;35.13;;;21.23;;
15944;SDS011;30172;48.832;8.732;2024-03-08T05:51:09;32.20;;;20.30;;
15944;SDS011;30172;48.832;8.732;2024-03-08T05:53:35;33.40;;;21.53;;
15944;SDS011;30172;48.832;8.732;2024-03-08T05:56:00;34.90;;;21.00;;
15944;SDS011;30172;48.832;8.732;2024-03-08T05:58:27;32.37;;;19.20;;
15944;SDS011;30172;48.832;8.732;2024-03-08T06:00:55;37.70;;;21.57;;
15944;SDS011;30172;48.832;8.732;2024-03-08T06:03:20;36.47;;;21.43;;
15944;SDS011;30172;48.832;8.732;2024-03-08T06:05:46;37.87;;;21.63;;
15944;SDS011;30172;48.832;8.732;2024-03-08T06:08:12;37.60;;;22.27;;
15944;SDS011;30172;48.832;8.732;2024-03-08T06:10:39;37.30;;;21.53;;
15944;SDS011;30172;48.832;8.732;2024-03-08T06:13:05;33.37;;;20.77;;
15944;SDS011;30172;48.832;8.732;2024-03-08T06:15:30;39.10;;;22.97;;
15944;SDS011;30172;48.832;8.732;2024-03-08T06:17:55;37.03;;;22.47;;
15944;SDS011;30172;48.832;8.732;2024-03-08T06:20:21;36.30;;;21.00;;
15944;SDS011;30172;48.832;8.732;2024-03-08T06:22:51;36.63;;;22.23;;
15944;SDS011;30172;48.832;8.732;2024-03-08T06:25:16;34.07;;;20.77;;
15944;SDS011;30172;48.832;8.732;2024-03-08T06:27:42;33.67;;;20.43;;
15944;SDS011;30172;48.832;8.732;2024-03-08T06:30:07;35.27;;;21.87;;
15944;SDS011;30172;48.832;8.732;2024-03-08T06:32:34;34.37;;;20.77;;
15944;SDS011;30172;48.832;8.732;2024-03-08T06:35:01;39.83;;;22.93;;
15944;SDS011;30172;48.832;8.732;2024-03-08T06:37:27;35.50;;;21.43;;
15944;SDS011;30172;48.832;8.732;2024-03-08T06:39:52;34.20;;;21.40;;
15944;SDS011;30172;48.832;8.732;2024-03-08T06:42:20;37.70;;;22.77;;
15944;SDS011;30172;48.832;8.732;2024-03-08T06:44:45;33.73;;;20.67;;
15944;SDS011;30172;48.832;8.732;2024-03-08T06:47:15;37.97;;;22.87;;
15944;SDS011;30172;48.832;8.732;2024-03-08T06:49:41;34.67;;;21.40;;
15944;SDS011;30172;48.832;8.732;2024-03-08T06:52:07;34.77;;;21.17;;
15944;SDS011;30172;48.832;8.732;2024-03-08T06:54:34;37.83;;;22.60;;
15944;SDS011;30172;48.832;8.732;2024-03-08T06:57:01;36.23;;;22.10;;
15944;SDS011;30172;48.832;8.732;2024-03-08T06:59:28;36.67;;;21.77;;
15944;SDS011;30172;48.832;8.732;2024-03-08T07:01:54;39.67;;;22.87;;
15944;SDS011;30172;48.832;8.732;2024-03-08T07:04:19;33.77;;;20.57;;
15944;SDS011;30172;48.832;8.732;2024-03-08T07:06:46;36.17;;;22.00;;
15944;SDS011;30172;48.832;8.732;2024-03-08T07:09:15;36.60;;;22.03;;
15944;SDS011;30172;48.832;8.732;2024-03-08T07:11:42;37.47;;;22.07;;
15944;SDS011;30172;48.832;8.732;2024-03-08T07:14:07;31.67;;;20.63;;
15944;SDS011;30172;48.832;8.732;2024-03-08T07:16:33;35.23;;;20.83;;
15944;SDS011;30172;48.832;8.732;2024-03-08T07:19:00;38.73;;;21.90;;
15944;SDS011;30172;48.832;8.732;2024-03-08T07:21:26;33.80;;;21.60;;
15944;SDS011;30172;48.832;8.732;2024-03-08T07:23:51;41.57;;;22.43;;
15944;SDS011;30172;48.832;8.732;2024-03-08T07:26:25;35.70;;;21.93;;
15944;SDS011;30172;48.832;8.732;2024-03-08T07:28:51;34.27;;;22.43;;
15944;SDS011;30172;48.832;8.732;2024-03-08T07:31:16;36.73;;;21.17;;
15944;SDS011;30172;48.832;8.732;2024-03-08T07:33:42;32.73;;;21.03;;
15944;SDS011;30172;48.832;8.732;2024-03-08T07:36:07;37.37;;;22.87;;
15944;SDS011;30172;48.832;8.732;2024-03-08T07:38:33;36.53;;;20.60;;
15944;SDS011;30172;48.832;8.732;2024-03-08T07:40:58;34.80;;;20.83;;
15944;SDS011;30172;48.832;8.732;2024-03-08T07:43:24;33.83;;;21.03;;
15944;SDS011;30172;48.832;8.732;2024-03-08T07:45:50;33.67;;;20.53;;
15944;SDS011;30172;48.832;8.732;2024-03-08T07:48:17;36.00;;;20.87;;
15944;SDS011;30172;48.832;8.732;2024-03-08T07:50:43;32.53;;;21.23;;
15944;SDS011;30172;48.832;8.732;2024-03-08T07:53:08;32.77;;;20.53;;
15944;SDS011;30172;48.832;8.732;2024-03-08T07:55:34;31.67;;;21.10;;
15944;SDS011;30172;48.832;8.732;2024-03-08T07:58:00;31.67;;;19.83;;
15944;SDS011;30172;48.832;8.732;2024-03-08T08:00:26;35.20;;;20.40;;
15944;SDS011;30172;48.832;8.732;2024-03-08T08:02:52;35.87;;;21.00;;
15944;SDS011;30172;48.832;8.732;2024-03-08T08:05:21;37.30;;;21.83;;
15944;SDS011;30172;48.832;8.732;2024-03-08T08:07:46;33.83;;;20.37;;
15944;SDS011;30172;48.832;8.732;2024-03-08T08:10:12;33.33;;;20.10;;
15944;SDS011;30172;48.832;8.732;2024-03-08T08:12:46;32.47;;;20.97;;
15944;SDS011;30172;48.832;8.732;2024-03-08T08:15:12;34.50;;;21.67;;
15944;SDS011;30172;48.832;8.732;2024-03-08T08:17:38;35.67;;;22.47;;
15944;SDS011;30172;48.832;8.732;2024-03-08T08:20:04;38.77;;;21.90;;
15944;SDS011;30172;48.832;8.732;2024-03-08T08:22:30;33.27;;;21.17;;
15944;SDS011;30172;48.832;8.732;2024-03-08T08:24:56;33.73;;;20.73;;
15944;SDS011;30172;48.832;8.732;2024-03-08T08:27:21;31.57;;;20.10;;
15944;SDS011;30172;48.832;8.732;2024-03-08T08:29:46;32.87;;;21.13;;
15944;SDS011;30172;48.832;8.732;2024-03-08T08:32:12;31.33;;;20.80;;
15944;SDS011;30172;48.832;8.732;2024-03-08T08:34:38;35.87;;;21.23;;
15944;SDS011;30172;48.832;8.732;2024-03-08T08:37:03;33.83;;;19.87;;
15944;SDS011;30172;48.832;8.732;2024-03-08T08:39:28;34.93;;;20.30;;
15944;SDS011;30172;48.832;8.732;2024-03-08T08:41:54;32.70;;;19.97;;
15944;SDS011;30172;48.832;8.732;2024-03-08T08:44:19;33.83;;;20.80;;
15944;SDS011;30172;48.832;8.732;2024-03-08T08:46:45;38.03;;;21.47;;
15944;SDS011;30172;48.832;8.732;2024-03-08T08:49:10;33.40;;;21.60;;
15944;SDS011;30172;48.832;8.732;2024-03-08T08:51:39;33.30;;;22.13;;
15944;SDS011;30172;48.832;8.732;2024-03-08T08:54:04;36.17;;;21.70;;
15944;SDS011;30172;48.832;8.732;2024-03-08T08:56:31;35.43;;;21.23;;
15944;SDS011;30172;48.832;8.732;2024-03-08T08:58:56;35.67;;;21.47;;
15944;SDS011;30172;48.832;8.732;2024-03-08T09:01:22;37.93;;;20.53;;
15944;SDS011;30172;48.832;8.732;2024-03-08T09:03:48;35.53;;;21.83;;
15944;SDS011;30172;48.832;8.732;2024-03-08T09:06:15;32.63;;;21.20;;
15944;SDS011;30172;48.832;8.732;2024-03-08T09:08:41;37.77;;;22.50;;
15944;SDS011;30172;48.832;8.732;2024-03-08T09:11:07;34.63;;;21.83;;
15944;SDS011;30172;48.832;8.732;2024-03-08T09:13:32;35.07;;;20.07;;
15944;SDS011;30172;48.832;8.732;2024-03-08T09:16:04;33.90;;;20.57;;
15944;SDS011;30172;48.832;8.732;2024-03-08T09:18:31;33.60;;;20.23;;
15944;SDS011;30172;48.832;8.732;2024-03-08T09:20:57;33.53;;;21.73;;
15944;SDS011;30172;48.832;8.732;2024-03-08T09:23:25;34.23;;;21.37;;
15944;SDS011;30172;48.832;8.732;2024-03-08T09:25:55;29.97;;;19.37;;
15944;SDS011;30172;48.832;8.732;2024-03-08T09:28:21;31.67;;;20.67;;
15944;SDS011;30172;48.832;8.732;2024-03-08T09:30:46;33.67;;;21.20;;
15944;SDS011;30172;48.832;8.732;2024-03-08T09:33:11;34.33;;;21.73;;
15944;SDS011;30172;48.832;8.732;2024-03-08T09:35:38;32.03;;;20.47;;
15944;SDS011;30172;48.832;8.732;2024-03-08T09:38:03;35.57;;;21.30;;
15944;SDS011;30172;48.832;8.732;2024-03-08T09:40:30;32.63;;;20.20;;
15944;SDS011;30172;48.832;8.732;2024-03-08T09:42:55;27.93;;;19.17;;
15944;SDS011;30172;48.832;8.732;2024-03-08T09:45:20;28.60;;;19.07;;
15944;SDS011;30172;48.832;8.732;2024-03-08T09:47:49;33.77;;;20.20;;
15944;SDS011;30172;48.832;8.732;2024-03-08T09:50:15;30.17;;;18.23;;
15944;SDS011;30172;48.832;8.732;2024-03-08T09:52:41;29.80;;;19.33;;
15944;SDS011;30172;48.832;8.732;2024-03-08T09:55:09;29.57;;;17.77;;
15944;SDS011;30172;48.832;8.732;2024-03-08T09:57:36;28.80;;;19.17;;
15944;SDS011;30172;48.832;8.732;2024-03-08T10:00:03;29.60;;;18.87;;
15944;SDS011;30172;48.832;8.732;2024-03-08T10:02:44;32.43;;;19.27;;
15944;SDS011;30172;48.832;8.732;2024-03-08T10:05:10;30.60;;;18.30;;
15944;SDS011;30172;48.832;8.732;2024-03-08T10:07:37;28.93;;;17.83;;
15944;SDS011;30172;48.832;8.732;2024-03-08T10:10:02;30.90;;;19.77;;
15944;SDS011;30172;48.832;8.732;2024-03-08T10:12:28;29.50;;;19.00;;
15944;SDS011;30172;48.832;8.732;2024-03-08T10:15:00;33.90;;;21.83;;
15944;SDS011;30172;48.832;8.732;2024-03-08T10:17:25;34.87;;;21.53;;
15944;SDS011;30172;48.832;8.732;2024-03-08T10:19:51;30.83;;;18.00;;
15944;SDS011;30172;48.832;8.732;2024-03-08T10:22:18;29.50;;;19.10;;
15944;SDS011;30172;48.832;8.732;2024-03-08T10:24:45;25.17;;;17.67;;
15944;SDS011;30172;48.832;8.732;2024-03-08T10:27:13;26.20;;;17.13;;
15944;SDS011;30172;48.832;8.732;2024-03-08T10:29:41;29.37;;;17.93;;
15944;SDS011;30172;48.832;8.732;2024-03-08T10:32:09;27.37;;;17.97;;
15944;SDS011;30172;48.832;8.732;2024-03-08T10:34:35;26.83;;;17.60;;
15944;SDS011;30172;48.832;8.732;2024-03-08T10:37:03;25.87;;;16.80;;
15944;SDS011;30172;48.832;8.732;2024-03-08T10:39:29;28.80;;;17.80;;
15944;SDS011;30172;48.832;8.732;2024-03-08T10:42:01;29.20;;;17.70;;
15944;SDS011;30172;48.832;8.732;2024-03-08T10:44:32;25.20;;;17.23;;
15944;SDS011;30172;48.832;8.732;2024-03-08T10:49:45;28.77;;;19.30;;
15944;SDS011;30172;48.832;8.732;2024-03-08T10:52:16;25.77;;;18.20;;
15944;SDS011;30172;48.832;8.732;2024-03-08T10:54:42;28.20;;;18.47;;
15944;SDS011;30172;48.832;8.732;2024-03-08T10:57:08;25.63;;;17.20;;
15944;SDS011;30172;48.832;8.732;2024-03-08T10:59:35;26.57;;;17.13;;
15944;SDS011;30172;48.832;8.732;2024-03-08T11:02:01;26.30;;;17.73;;
15944;SDS011;30172;48.832;8.732;2024-03-08T11:04:26;25.90;;;17.90;;
15944;SDS011;30172;48.832;8.732;2024-03-08T11:06:54;27.60;;;17.83;;
15944;SDS011;30172;48.832;8.732;2024-03-08T11:12:39;27.07;;;18.03;;
15944;SDS011;30172;48.832;8.732;2024-03-08T11:14:44;24.57;;;16.60;;
15944;SDS011;30172;48.832;8.732;2024-03-08T11:17:12;25.67;;;17.17;;
15944;SDS011;30172;48.832;8.732;2024-03-08T11:19:38;26.40;;;17.00;;
15944;SDS011;30172;48.832;8.732;2024-03-08T11:22:13;25.47;;;17.63;;
15944;SDS011;30172;48.832;8.732;2024-03-08T11:24:48;22.07;;;16.37;;
15944;SDS011;30172;48.832;8.732;2024-03-08T11:27:14;26.00;;;16.43;;
15944;SDS011;30172;48.832;8.732;2024-03-08T11:29:40;23.07;;;15.90;;
15944;SDS011;30172;48.832;8.732;2024-03-08T11:34:35;25.27;;;16.70;;
15944;SDS011;30172;48.832;8.732;2024-03-08T11:37:00;26.17;;;16.17;;
15944;SDS011;30172;48.832;8.732;2024-03-08T11:39:28;25.10;;;16.57;;
15944;SDS011;30172;48.832;8.732;2024-03-08T11:41:55;24.47;;;17.03;;
15944;SDS011;30172;48.832;8.732;2024-03-08T11:44:21;23.67;;;15.33;;
15944;SDS011;30172;48.832;8.732;2024-03-08T11:46:46;22.13;;;15.87;;
15944;SDS011;30172;48.832;8.732;2024-03-08T11:49:13;23.13;;;16.13;;
15944;SDS011;30172;48.832;8.732;2024-03-08T11:51:38;22.93;;;15.37;;
15944;SDS011;30172;48.832;8.732;2024-03-08T11:54:04;24.37;;;16.13;;
15944;SDS011;30172;48.832;8.732;2024-03-08T11:56:31;21.97;;;15.43;;
15944;SDS011;30172;48.832;8.732;2024-03-08T11:58:57;24.63;;;16.37;;
15944;SDS011;30172;48.832;8.732;2024-03-08T12:01:22;23.80;;;15.67;;
15944;SDS011;30172;48.832;8.732;2024-03-08T12:04:10;23.80;;;16.43;;
15944;SDS011;30172;48.832;8.732;2024-03-08T12:06:37;23.57;;;15.30;;
15944;SDS011;30172;48.832;8.732;2024-03-08T12:09:12;23.93;;;16.50;;
15944;SDS011;30172;48.832;8.732;2024-03-08T12:11:38;22.77;;;14.87;;
15944;SDS011;30172;48.832;8.732;2024-03-08T12:14:04;21.77;;;14.23;;
15944;SDS011;30172;48.832;8.732;2024-03-08T12:16:29;22.30;;;15.03;;
15944;SDS011;30172;48.832;8.732;2024-03-08T12:18:55;21.73;;;14.73;;
15944;SDS011;30172;48.832;8.732;2024-03-08T12:21:20;21.40;;;15.40;;
15944;SDS011;30172;48.832;8.732;2024-03-08T12:23:47;19.30;;;14.80;;
15944;SDS011;30172;48.832;8.732;2024-03-08T12:26:16;19.87;;;13.83;;
15944;SDS011;30172;48.832;8.732;2024-03-08T12:28:43;22.17;;;15.37;;
15944;SDS011;30172;48.832;8.732;2024-03-08T12:31:11;19.23;;;14.10;;
15944;SDS011;30172;48.832;8.732;2024-03-08T12:33:49;20.60;;;14.83;;
15944;SDS011;30172;48.832;8.732;2024-03-08T12:36:18;20.47;;;14.90;;
15944;SDS011;30172;48.832;8.732;2024-03-08T12:38:47;19.63;;;14.60;;
15944;SDS011;30172;48.832;8.732;2024-03-08T12:41:16;20.67;;;14.53;;
15944;SDS011;30172;48.832;8.732;2024-03-08T12:43:44;20.13;;;14.77;;
15944;SDS011;30172;48.832;8.732;2024-03-08T12:46:17;19.77;;;14.30;;
15944;SDS011;30172;48.832;8.732;2024-03-08T12:48:43;19.00;;;13.93;;
15944;SDS011;30172;48.832;8.732;2024-03-08T12:51:12;20.73;;;15.13;;
15944;SDS011;30172;48.832;8.732;2024-03-08T12:53:38;18.00;;;13.70;;
15944;SDS011;30172;48.832;8.732;2024-03-08T12:56:05;21.13;;;14.80;;
15944;SDS011;30172;48.832;8.732;2024-03-08T12:58:33;20.87;;;14.00;;
15944;SDS011;30172;48.832;8.732;2024-03-08T13:00:59;20.23;;;13.90;;
15944;SDS011;30172;48.832;8.732;2024-03-08T13:03:25;20.10;;;14.57;;
15944;SDS011;30172;48.832;8.732;2024-03-08T13:05:50;23.03;;;14.80;;
15944;SDS011;30172;48.832;8.732;2024-03-08T13:08:19;19.00;;;14.30;;
15944;SDS011;30172;48.832;8.732;2024-03-08T13:10:45;19.03;;;14.57;;
15944;SDS011;30172;48.832;8.732;2024-03-08T13:13:11;19.53;;;14.27;;
15944;SDS011;30172;48.832;8.732;2024-03-08T13:15:37;19.63;;;15.30;;
15944;SDS011;30172;48.832;8.732;2024-03-08T13:18:03;19.90;;;14.47;;
15944;SDS011;30172;48.832;8.732;2024-03-08T13:20:28;19.93;;;15.50;;
15944;SDS011;30172;48.832;8.732;2024-03-08T13:22:54;20.57;;;13.90;;
15944;SDS011;30172;48.832;8.732;2024-03-08T13:25:20;20.23;;;14.63;;
15944;SDS011;30172;48.832;8.732;2024-03-08T13:27:46;23.03;;;14.87;;
15944;SDS011;30172;48.832;8.732;2024-03-08T13:30:12;18.87;;;14.53;;
15944;SDS011;30172;48.832;8.732;2024-03-08T13:32:41;20.60;;;14.27;;
15944;SDS011;30172;48.832;8.732;2024-03-08T13:35:12;19.63;;;14.40;;
15944;SDS011;30172;48.832;8.732;2024-03-08T13:37:41;19.83;;;14.07;;
15944;SDS011;30172;48.832;8.732;2024-03-08T13:40:07;18.63;;;14.00;;
15944;SDS011;30172;48.832;8.732;2024-03-08T13:42:38;19.37;;;13.83;;
15944;SDS011;30172;48.832;8.732;2024-03-08T13:45:04;23.03;;;15.67;;
15944;SDS011;30172;48.832;8.732;2024-03-08T13:47:32;17.77;;;13.33;;
15944;SDS011;30172;48.832;8.732;2024-03-08T13:49:59;19.27;;;14.20;;
15944;SDS011;30172;48.832;8.732;2024-03-08T13:52:25;22.00;;;15.00;;
15944;SDS011;30172;48.832;8.732;2024-03-08T13:54:54;19.33;;;13.97;;
15944;SDS011;30172;48.832;8.732;2024-03-08T13:57:19;21.20;;;14.60;;
15944;SDS011;30172;48.832;8.732;2024-03-08T13:59:45;20.73;;;14.70;;
15944;SDS011;30172;48.832;8.732;2024-03-08T14:02:10;18.20;;;13.43;;
15944;SDS011;30172;48.832;8.732;2024-03-08T14:04:38;21.07;;;15.03;;
15944;SDS011;30172;48.832;8.732;2024-03-08T14:07:05;18.27;;;14.17;;
15944;SDS011;30172;48.832;8.732;2024-03-08T14:09:33;19.97;;;14.27;;
15944;SDS011;30172;48.832;8.732;2024-03-08T14:12:02;19.73;;;14.20;;
15944;SDS011;30172;48.832;8.732;2024-03-08T14:14:32;21.37;;;14.23;;
15944;SDS011;30172;48.832;8.732;2024-03-08T14:17:00;20.47;;;13.57;;
15944;SDS011;30172;48.832;8.732;2024-03-08T14:19:27;18.57;;;13.90;;
15944;SDS011;30172;48.832;8.732;2024-03-08T14:21:52;23.03;;;14.10;;
15944;SDS011;30172;48.832;8.732;2024-03-08T14:24:18;19.27;;;15.10;;
15944;SDS011;30172;48.832;8.732;2024-03-08T14:26:44;21.57;;;14.53;;
15944;SDS011;30172;48.832;8.732;2024-03-08T14:29:10;20.97;;;14.33;;